Time;durP1;ratioP1;P1;durP2;ratioP2;P2;SDS_P1;SDS_P2;PMS_P1;PMS_P2;Temp;Humidity;BMP_temperature;BMP_pressure;BME280_temperature;BME280_humidity;BME280_pressure;Samples;Min_cycle;Max_cycle;Signal;HPM_P1;HPM_P2
2022/04/02 00:01:21;;;;;;;;;10.80;10.60;;;;;8.15;46.88;97156.97;6255702;27;98934;-68
2022/04/02 00:04:26;;;;;;;;;11.00;11.00;;;;;8.22;46.86;97161.09;6237278;28;98584;-69
2022/04/02 00:07:29;;;;;;;;;13.00;12.00;;;;;8.21;46.77;97159.47;6257014;27;98539;-70
2022/04/02 00:10:33;;;;;;;;;15.00;13.00;;;;;8.22;46.71;97150.34;6263538;27;97422;-70
2022/04/02 00:13:36;;;;;;;;;13.00;11.00;;;;;8.04;46.32;97129.19;6261643;27;96620;-70
2022/04/02 00:16:40;;;;;;;;;14.00;13.20;;;;;8.30;46.48;97159.09;6244362;27;96664;-69
2022/04/02 00:19:45;;;;;;;;;13.00;12.00;;;;;8.32;46.67;97146.19;6260978;27;97132;-69
2022/04/02 00:26:06;;;;;;;;;12.80;12.80;;;;;8.21;46.54;97167.50;6263557;27;97047;-70
2022/04/02 00:29:11;;;;;;;;;12.75;12.00;;;;;8.20;46.73;97165.09;6242412;27;99489;-70
2022/04/02 00:32:14;;;;;;;;;14.00;13.00;;;;;8.02;46.90;97149.25;6271151;27;97017;-67
2022/04/02 00:35:19;;;;;;;;;14.00;14.00;;;;;8.19;46.72;97166.16;6259816;27;96826;-70
2022/04/02 00:38:22;;;;;;;;;11.20;11.00;;;;;8.18;46.67;97170.69;6258907;27;97405;-68
2022/04/02 00:41:25;;;;;;;;;14.00;13.40;;;;;8.20;46.61;97171.28;6263472;27;96826;-69
2022/04/02 00:44:29;;;;;;;;;13.80;12.40;;;;;8.19;46.95;97174.19;6240070;27;97048;-69
2022/04/02 00:47:33;;;;;;;;;13.75;11.75;;;;;8.18;47.24;97178.75;6251727;27;97903;-68
2022/04/02 00:50:38;;;;;;;;;15.25;14.00;;;;;8.13;46.89;97183.25;6212603;28;96837;-68
2022/04/02 00:53:45;;;;;;;;;14.00;13.00;;;;;7.77;46.81;97106.81;6206576;28;96518;-67
2022/04/02 00:56:50;;;;;;;;;14.00;13.00;;;;;8.15;47.00;97181.13;6237030;28;97689;-69
2022/04/02 00:59:56;;;;;;;;;12.00;12.00;;;;;8.15;46.91;97186.50;6215920;28;96708;-66
2022/04/02 01:02:59;;;;;;;;;11.75;11.00;;;;;8.06;47.08;97185.31;6238293;28;96392;-69
2022/04/02 01:06:05;;;;;;;;;15.67;13.00;;;;;8.02;47.05;97184.16;6239392;28;96974;-68
2022/04/02 01:09:13;;;;;;;;;13.80;12.80;;;;;8.04;47.30;97182.84;6231237;28;96403;-70
2022/04/02 01:12:16;;;;;;;;;12.00;11.50;;;;;8.06;47.08;97182.63;6221760;28;97286;-70
2022/04/02 01:15:19;;;;;;;;;10.60;9.60;;;;;8.11;47.11;97186.16;6240328;27;97345;-68
2022/04/02 01:18:28;;;;;;;;;13.40;12.40;;;;;8.12;47.02;97182.41;6241048;28;97139;-67
2022/04/02 01:21:37;;;;;;;;;11.00;10.00;;;;;8.15;47.22;97183.81;6238824;28;98821;-67
2022/04/02 01:25:09;;;;;;;;;14.00;13.00;;;;;8.20;46.66;97187.38;6239004;28;96855;-70
2022/04/02 01:28:19;;;;;;;;;12.00;12.00;;;;;8.20;46.85;97191.94;6240352;28;97274;-67
2022/04/02 01:31:27;;;;;;;;;11.60;11.00;;;;;8.21;46.91;97193.53;6223196;28;96663;-69
2022/04/02 01:34:33;;;;;;;;;13.80;13.80;;;;;8.20;46.64;97191.94;6239565;28;96413;-70
2022/04/02 01:37:46;;;;;;;;;13.20;11.00;;;;;8.18;46.78;97184.13;6240174;28;96760;-69
2022/04/02 01:40:53;;;;;;;;;12.00;10.80;;;;;8.20;46.76;97186.56;6239594;28;96979;-69
2022/04/02 01:44:03;;;;;;;;;11.40;11.00;;;;;8.17;46.76;97189.72;6253177;27;97518;-70
2022/04/02 01:47:07;;;;;;;;;11.00;10.00;;;;;8.19;46.83;97190.31;6257334;27;96641;-69
2022/04/02 01:50:13;;;;;;;;;12.00;11.20;;;;;8.14;46.65;97183.00;6273020;27;97400;-68
2022/04/02 01:53:23;;;;;;;;;12.40;11.40;;;;;8.15;46.52;97191.88;6274356;27;97529;-70
2022/04/02 01:56:28;;;;;;;;;11.40;11.00;;;;;8.07;46.86;97193.09;6247591;27;98195;-69
2022/04/02 01:59:35;;;;;;;;;11.00;11.00;;;;;8.04;47.15;97190.91;6272265;27;96633;-70
2022/04/02 02:02:39;;;;;;;;;13.00;13.00;;;;;8.19;46.72;97201.84;6275195;27;96437;-69
2022/04/02 02:05:44;;;;;;;;;9.50;9.00;;;;;8.23;46.58;97202.16;6290972;27;96483;-69
2022/04/02 02:08:48;;;;;;;;;12.00;11.00;;;;;8.16;46.50;97194.28;6274100;27;98091;-68
2022/04/02 02:12:05;;;;;;;;;11.00;10.60;;;;;8.12;46.83;97201.22;6289355;27;96992;-69
2022/04/02 02:15:27;;;;;;;;;12.50;12.00;;;;;8.13;46.77;97199.34;6265357;27;97334;-68
2022/04/02 02:18:37;;;;;;;;;13.00;11.75;;;;;8.16;46.86;97205.03;6274603;27;97110;-69
2022/04/02 02:21:41;;;;;;;;;9.40;9.00;;;;;8.15;46.94;97208.78;6274651;27;97474;-68
2022/04/02 02:24:52;;;;;;;;;11.00;10.60;;;;;8.15;47.00;97203.41;6270614;27;97105;-69
2022/04/02 02:27:57;;;;;;;;;9.00;9.00;;;;;8.15;46.62;97205.28;6261140;27;97433;-68
2022/04/02 02:31:01;;;;;;;;;11.00;11.00;;;;;8.17;46.77;97208.53;6257840;27;99753;-68
2022/04/02 02:37:32;;;;;;;;;11.00;10.00;;;;;8.23;46.52;97210.22;6270053;27;97138;-68
2022/04/02 02:40:41;;;;;;;;;11.20;11.00;;;;;8.20;46.58;97208.03;6264958;27;97274;-70
2022/04/02 02:43:53;;;;;;;;;11.40;9.60;;;;;8.14;46.35;97203.66;6270326;27;97439;-68
2022/04/02 02:47:06;;;;;;;;;10.00;9.00;;;;;8.11;46.53;97204.94;6255350;27;97060;-69
2022/04/02 02:50:13;;;;;;;;;9.00;9.00;;;;;8.09;46.66;97211.63;6273075;27;97150;-70
2022/04/02 02:53:28;;;;;;;;;8.40;8.40;;;;;8.00;46.93;97208.56;6270991;27;96584;-69
2022/04/02 02:56:32;;;;;;;;;11.00;9.00;;;;;8.09;46.92;97211.63;6278471;27;96509;-69
2022/04/02 02:59:37;;;;;;;;;9.00;9.00;;;;;8.00;46.81;97208.56;6270167;27;97394;-69
2022/04/02 03:02:41;;;;;;;;;9.50;9.00;;;;;8.00;46.99;97223.84;6267919;27;99469;-69
2022/04/02 03:05:47;;;;;;;;;9.20;9.00;;;;;7.82;47.03;97184.66;6274548;27;97402;-68
2022/04/02 03:08:51;;;;;;;;;9.00;9.00;;;;;8.00;46.91;97223.84;6272077;27;96592;-70
2022/04/02 03:11:55;;;;;;;;;8.40;8.00;;;;;8.06;47.05;97210.25;6290817;27;96561;-71
2022/04/02 03:15:01;;;;;;;;;9.50;9.00;;;;;8.05;46.73;97214.00;6269971;27;96329;-68
2022/04/02 03:18:08;;;;;;;;;10.00;9.60;;;;;8.17;46.74;97217.38;6287118;27;99824;-69
2022/04/02 03:21:18;;;;;;;;;10.00;10.00;;;;;8.20;46.72;97216.91;6274622;27;97420;-70
2022/04/02 03:24:22;;;;;;;;;8.00;8.00;;;;;8.23;46.32;97208.34;6251689;27;96970;-69
2022/04/02 03:27:26;;;;;;;;;10.67;10.00;;;;;8.21;46.27;97213.16;6289075;27;97088;-67
2022/04/02 03:30:31;;;;;;;;;8.80;8.80;;;;;8.17;46.43;97217.38;6274629;27;97385;-69
2022/04/02 03:33:37;;;;;;;;;10.00;9.00;;;;;8.24;46.33;97212.66;6230582;27;96625;-67
2022/04/02 03:36:41;;;;;;;;;8.75;8.00;;;;;8.25;46.23;97218.84;6285440;27;96564;-68
2022/04/02 03:39:44;;;;;;;;;11.00;11.00;;;;;8.19;46.42;97220.66;6271017;27;96970;-68
2022/04/02 03:42:49;;;;;;;;;9.50;9.00;;;;;8.17;46.43;97221.94;6261758;27;98061;-68
2022/04/02 03:47:08;;;;;;;;;10.60;9.00;;;;;8.10;46.42;97227.50;6229173;27;96771;-67
2022/04/02 03:49:23;;;;;;;;;8.00;8.00;;;;;7.92;46.83;97224.25;6237200;27;96817;-68
2022/04/02 03:52:27;;;;;;;;;12.25;11.75;;;;;7.72;46.77;97216.72;6252368;27;97739;-67
2022/04/02 03:55:40;;;;;;;;;10.00;10.00;;;;;7.79;47.44;97226.22;6278835;27;97396;-70
2022/04/02 03:58:55;;;;;;;;;10.00;9.25;;;;;7.84;47.29;97231.66;6252902;27;96820;-69
2022/04/02 04:02:04;;;;;;;;;11.40;10.00;;;;;7.91;47.29;97236.06;6265012;27;97446;-69
2022/04/02 04:05:09;;;;;;;;;8.80;8.00;;;;;7.74;47.33;97226.13;6253358;27;99863;-69
2022/04/02 04:08:13;;;;;;;;;15.40;15.00;;;;;7.88;47.14;97228.47;6250805;27;97714;-67
2022/04/02 04:11:18;;;;;;;;;22.60;18.60;;;;;7.92;47.04;97248.38;6269347;27;98749;-70
2022/04/02 04:14:26;;;;;;;;;12.00;11.25;;;;;7.74;46.86;97230.69;6271277;27;96840;-68
2022/04/02 04:17:32;;;;;;;;;15.00;14.40;;;;;7.89;47.17;97248.88;6269964;27;96590;-70
2022/04/02 04:20:37;;;;;;;;;8.50;8.50;;;;;7.95;47.01;97258.66;6268999;27;96547;-68
2022/04/02 04:23:43;;;;;;;;;13.00;11.40;;;;;7.95;46.94;97259.47;6261360;27;98342;-70
2022/04/02 04:26:48;;;;;;;;;9.20;9.00;;;;;8.00;46.80;97261.41;6281612;27;97382;-68
2022/04/02 04:29:52;;;;;;;;;11.00;9.40;;;;;8.10;46.78;97257.03;6282986;27;97205;-67
2022/04/02 04:32:57;;;;;;;;;9.20;9.00;;;;;8.12;46.66;97260.25;6258068;27;96781;-70
2022/04/02 04:36:09;;;;;;;;;11.80;11.00;;;;;7.97;46.46;97251.16;6288896;27;97087;-68
2022/04/02 04:39:12;;;;;;;;;12.40;12.00;;;;;8.05;47.03;97264.19;6269101;27;97442;-68
2022/04/02 04:42:17;;;;;;;;;11.00;11.00;;;;;8.07;46.57;97268.22;6284209;27;96649;-69
2022/04/02 04:45:20;;;;;;;;;10.25;9.50;;;;;8.06;46.65;97265.81;6240703;27;96675;-70
2022/04/02 04:48:27;;;;;;;;;10.00;10.00;;;;;7.99;46.53;97267.84;6275848;27;97465;-69
2022/04/02 04:51:34;;;;;;;;;10.00;9.50;;;;;8.00;46.96;97269.47;6276772;27;96615;-68
2022/04/02 04:54:41;;;;;;;;;12.00;11.00;;;;;7.97;46.99;97267.25;6258635;27;98827;-67
2022/04/02 04:57:50;;;;;;;;;11.00;10.40;;;;;8.02;46.60;97283.44;6266472;27;98051;-68
2022/04/02 05:01:00;;;;;;;;;12.00;11.40;;;;;8.07;46.74;97283.50;6253767;27;96987;-68
2022/04/02 05:04:08;;;;;;;;;10.00;9.25;;;;;8.11;46.81;97282.00;6275201;27;96822;-68
2022/04/02 05:07:36;;;;;;;;;10.00;9.00;;;;;8.06;46.80;97279.22;6258971;27;99517;-69
2022/04/02 05:10:40;;;;;;;;;13.40;11.00;;;;;8.14;46.60;97292.22;6274279;27;97075;-68
2022/04/02 05:13:46;;;;;;;;;11.00;10.80;;;;;8.09;46.65;97278.72;6251633;27;97032;-69
2022/04/02 05:16:54;;;;;;;;;9.40;9.00;;;;;8.18;46.36;97293.34;6279213;27;96739;-70
2022/04/02 05:20:06;;;;;;;;;16.40;14.40;;;;;8.10;46.35;97289.22;6270439;27;98066;-69
2022/04/02 05:23:12;;;;;;;;;23.40;20.00;;;;;8.17;46.58;97286.34;6255761;27;99842;-70
2022/04/02 05:26:17;;;;;;;;;11.00;11.00;;;;;8.16;46.73;97290.91;6273857;27;96842;-67
2022/04/02 05:29:28;;;;;;;;;11.40;11.00;;;;;8.14;46.57;97290.34;6272637;27;97536;-69
2022/04/02 05:32:31;;;;;;;;;11.00;9.00;;;;;8.22;46.40;97302.53;6253203;27;96798;-67
2022/04/02 05:35:36;;;;;;;;;10.80;10.80;;;;;8.13;46.30;97288.72;6274266;27;96650;-68
2022/04/02 05:38:40;;;;;;;;;10.00;10.00;;;;;8.20;46.43;97302.81;6290571;27;97553;-70
2022/04/02 05:41:43;;;;;;;;;9.80;9.80;;;;;8.03;46.17;97277.00;6273017;27;97069;-68
2022/04/02 05:44:47;;;;;;;;;9.00;8.00;;;;;8.21;46.25;97306.28;6232062;28;98336;-68
2022/04/02 05:47:52;;;;;;;;;10.00;10.00;;;;;8.12;46.34;97308.56;6213664;28;97105;-70
2022/04/02 05:50:56;;;;;;;;;8.00;8.00;;;;;8.14;46.47;97311.84;6238792;28;96838;-67
2022/04/02 05:54:00;;;;;;;;;11.00;10.00;;;;;7.78;46.82;97256.78;6237806;28;96552;-68
2022/04/02 05:57:05;;;;;;;;;11.00;10.00;;;;;8.10;46.83;97309.88;6241542;28;96985;-70
2022/04/02 06:00:10;;;;;;;;;10.20;9.00;;;;;8.10;47.03;97308.03;6239713;27;97021;-71
2022/04/02 06:03:19;;;;;;;;;11.00;11.00;;;;;8.06;47.02;97312.22;6238130;28;99691;-68
2022/04/02 06:06:25;;;;;;;;;13.50;12.75;;;;;8.17;46.59;97314.00;6239823;27;97007;-68
2022/04/02 06:09:28;;;;;;;;;13.00;12.75;;;;;8.22;46.49;97319.47;6236761;28;97449;-68
2022/04/02 06:12:31;;;;;;;;;10.00;9.00;;;;;8.23;46.69;97329.16;6237212;28;97364;-70
2022/04/02 06:15:35;;;;;;;;;9.00;9.00;;;;;8.33;46.50;97325.03;6236311;28;97284;-68
2022/04/02 06:18:39;;;;;;;;;13.00;12.00;;;;;8.30;46.25;97315.59;6236618;28;98031;-67
2022/04/02 06:21:44;;;;;;;;;12.00;11.20;;;;;8.30;46.47;97331.72;6245147;27;96857;-70
2022/04/02 06:24:47;;;;;;;;;11.00;10.60;;;;;8.41;46.34;97330.78;6237816;28;97577;-68
2022/04/02 06:27:55;;;;;;;;;12.00;10.00;;;;;8.42;46.03;97328.91;6237193;28;97224;-70
2022/04/02 06:30:59;;;;;;;;;9.80;9.40;;;;;8.44;46.13;97333.00;6216354;28;97487;-70
2022/04/02 06:34:11;;;;;;;;;12.20;12.00;;;;;8.37;46.16;97335.03;6213160;28;96582;-69
2022/04/02 06:37:16;;;;;;;;;11.80;10.80;;;;;8.46;46.07;97332.72;6231410;28;97099;-67
2022/04/02 06:40:19;;;;;;;;;10.00;9.25;;;;;8.51;45.94;97341.69;6232654;28;97468;-67
2022/04/02 06:43:23;;;;;;;;;10.50;9.50;;;;;8.53;45.92;97338.75;6244487;27;96848;-67
2022/04/02 06:46:48;;;;;;;;;9.20;9.20;;;;;8.51;45.93;97339.00;6293858;27;96514;-67
2022/04/02 06:49:51;;;;;;;;;11.00;11.00;;;;;8.49;45.98;97343.81;6272410;27;96686;-68
2022/04/02 06:52:56;;;;;;;;;11.00;11.00;;;;;8.45;46.08;97345.38;6270950;27;97977;-69
2022/04/02 06:56:03;;;;;;;;;9.00;9.00;;;;;8.55;45.76;97352.78;6267965;27;96788;-67
2022/04/02 06:59:06;;;;;;;;;12.67;10.67;;;;;8.59;45.99;97348.53;6266589;27;97093;-67
2022/04/02 07:02:10;;;;;;;;;11.00;10.40;;;;;8.58;45.81;97349.59;6282947;27;97377;-67
2022/04/02 07:05:14;;;;;;;;;12.00;10.50;;;;;8.64;45.65;97354.78;6278603;27;96651;-69
2022/04/02 07:08:19;;;;;;;;;12.00;12.00;;;;;8.65;45.23;97353.72;6269823;27;96640;-69
2022/04/02 07:11:22;;;;;;;;;11.00;10.40;;;;;8.68;45.02;97352.41;6276421;27;98003;-68
2022/04/02 07:14:25;;;;;;;;;10.00;10.00;;;;;8.61;44.98;97347.22;6289216;27;97091;-67
2022/04/02 07:17:29;;;;;;;;;10.25;9.25;;;;;8.67;45.17;97351.59;6269992;27;97841;-67
2022/04/02 07:20:35;;;;;;;;;11.00;10.60;;;;;8.58;45.08;97347.72;6276515;27;96504;-69
2022/04/02 07:23:42;;;;;;;;;10.60;10.00;;;;;8.63;45.23;97371.97;6291092;27;96952;-69
2022/04/02 07:26:47;;;;;;;;;11.00;10.40;;;;;8.62;45.20;97362.28;6291029;27;97399;-67
2022/04/02 07:29:52;;;;;;;;;11.80;10.20;;;;;8.64;45.36;97368.22;6285019;27;96972;-69
2022/04/02 07:32:56;;;;;;;;;11.00;10.80;;;;;8.65;45.11;97375.19;6288668;27;97125;-69
2022/04/02 07:36:08;;;;;;;;;11.75;10.25;;;;;8.73;44.71;97370.47;6274974;27;96722;-68
2022/04/02 07:39:22;;;;;;;;;12.00;11.50;;;;;8.69;44.96;97373.69;6266961;27;96793;-68
2022/04/02 07:42:33;;;;;;;;;10.00;10.00;;;;;8.63;44.87;97380.03;6289164;27;98249;-67
2022/04/02 07:45:41;;;;;;;;;9.00;8.00;;;;;8.72;44.80;97377.72;6285516;27;96514;-67
2022/04/02 07:48:49;;;;;;;;;10.75;9.00;;;;;8.79;44.46;97383.75;6277255;27;97162;-68
2022/04/02 07:52:03;;;;;;;;;8.00;8.00;;;;;8.75;44.41;97395.25;6246044;27;96616;-68
2022/04/02 07:55:09;;;;;;;;;7.00;7.00;;;;;8.79;44.75;97394.50;6263972;27;97038;-69
2022/04/02 07:58:16;;;;;;;;;9.00;9.00;;;;;8.70;44.53;97390.59;6295613;27;96904;-68
2022/04/02 08:01:21;;;;;;;;;13.25;13.00;;;;;8.74;44.15;97402.50;6283529;27;97114;-67
2022/04/02 08:04:26;;;;;;;;;11.20;10.20;;;;;8.77;44.18;97404.66;6251477;27;97720;-70
2022/04/02 08:07:31;;;;;;;;;10.00;10.00;;;;;8.76;44.67;97403.03;6251424;27;97806;-67
2022/04/02 08:10:37;;;;;;;;;10.80;9.80;;;;;8.61;44.52;97389.38;6270246;27;97121;-68
2022/04/02 08:13:43;;;;;;;;;10.20;9.60;;;;;8.68;44.46;97406.97;6285799;27;97996;-67
2022/04/02 08:16:50;;;;;;;;;11.00;11.00;;;;;8.75;44.64;97411.38;6269962;27;97243;-68
2022/04/02 08:19:54;;;;;;;;;11.20;10.20;;;;;8.72;44.73;97415.34;6266655;27;99376;-67
2022/04/02 08:23:01;;;;;;;;;11.25;10.00;;;;;8.74;44.60;97417.78;6291886;27;96933;-69
2022/04/02 08:26:25;;;;;;;;;10.80;10.80;;;;;8.68;44.33;97419.59;6265366;27;97363;-70
2022/04/02 08:29:49;;;;;;;;;13.50;12.50;;;;;8.66;44.28;97421.69;6273912;27;96668;-67
2022/04/02 08:33:24;;;;;;;;;11.00;10.00;;;;;8.68;44.66;97425.78;6284889;27;98949;-71
2022/04/02 08:36:35;;;;;;;;;14.00;13.00;;;;;8.64;44.43;97435.38;6290241;27;96667;-70
2022/04/02 08:39:53;;;;;;;;;11.00;11.00;;;;;8.65;44.23;97436.16;6291785;27;96685;-67
2022/04/02 08:43:15;;;;;;;;;11.40;11.00;;;;;8.70;44.47;97439.75;6290448;27;96921;-68
2022/04/02 08:46:36;;;;;;;;;13.00;12.00;;;;;8.66;44.17;97440.50;6273248;27;99480;-69
2022/04/02 08:49:50;;;;;;;;;13.40;12.00;;;;;8.61;44.26;97430.47;6286377;27;97232;-71
2022/04/02 08:52:55;;;;;;;;;15.60;12.00;;;;;8.67;44.41;97439.44;6292552;27;97464;-69
2022/04/02 08:56:02;;;;;;;;;12.60;12.40;;;;;8.65;44.11;97423.56;6274687;27;96517;-69
2022/04/02 08:59:08;;;;;;;;;14.80;14.80;;;;;8.66;44.34;97452.06;6261572;27;97611;-69
2022/04/02 09:02:48;;;;;;;;;13.60;13.00;;;;;8.64;44.83;97451.50;6292113;27;98043;-70
2022/04/02 09:06:16;;;;;;;;;13.75;13.00;;;;;8.49;45.09;97453.13;6266405;27;96694;-69
2022/04/02 09:09:39;;;;;;;;;13.00;13.00;;;;;8.50;44.63;97460.13;6286614;27;97201;-70
2022/04/02 09:12:55;;;;;;;;;11.20;10.00;;;;;8.50;44.81;97463.59;6255247;27;97489;-69
2022/04/02 09:16:04;;;;;;;;;10.00;9.00;;;;;8.48;44.79;97472.97;6269990;27;96962;-68
2022/04/02 09:19:15;;;;;;;;;12.00;12.00;;;;;8.43;44.60;97471.00;6275025;27;97416;-71
2022/04/02 09:22:32;;;;;;;;;14.00;13.00;;;;;8.46;44.71;97462.47;6261045;27;96845;-69
2022/04/02 09:26:05;;;;;;;;;11.80;11.20;;;;;8.53;44.70;97475.75;6289892;27;96756;-70
2022/04/02 09:29:15;;;;;;;;;13.00;12.00;;;;;8.54;44.54;97475.50;6283501;27;97602;-70
2022/04/02 09:32:52;;;;;;;;;14.40;13.00;;;;;8.56;44.14;97478.75;6290534;27;96976;-71
2022/04/02 09:36:24;;;;;;;;;13.00;11.60;;;;;8.56;44.45;97472.56;6292325;27;97185;-69
2022/04/02 09:39:52;;;;;;;;;13.00;12.00;;;;;8.50;44.46;97479.72;6285327;27;97038;-72
2022/04/02 09:43:05;;;;;;;;;13.33;12.33;;;;;8.47;44.77;97474.84;6261181;27;97057;-71
2022/04/02 09:46:35;;;;;;;;;14.00;12.00;;;;;8.57;44.64;97483.06;6284869;27;97469;-70
2022/04/02 09:50:07;;;;;;;;;14.80;13.20;;;;;8.38;44.37;97489.72;6277388;27;97066;-71
2022/04/02 09:53:15;;;;;;;;;14.00;14.00;;;;;8.32;44.73;97482.63;6270852;27;99153;-70
2022/04/02 09:56:27;;;;;;;;;14.60;13.00;;;;;8.36;44.61;97499.06;6269901;27;97379;-72
2022/04/02 09:59:38;;;;;;;;;11.60;10.00;;;;;8.42;44.57;97498.91;6292469;27;97469;-70
2022/04/02 10:03:02;;;;;;;;;11.00;11.00;;;;;8.40;44.48;97494.84;6272506;27;97412;-71
2022/04/02 10:06:19;;;;;;;;;13.00;12.00;;;;;8.45;44.59;97495.75;6259912;27;97036;-70
2022/04/02 10:09:24;;;;;;;;;12.20;11.60;;;;;8.41;44.65;97494.59;6277970;27;96673;-72
2022/04/02 10:12:29;;;;;;;;;13.00;12.00;;;;;8.36;44.42;97491.00;6288789;27;96881;-71
2022/04/02 10:15:33;;;;;;;;;12.00;12.00;;;;;8.37;44.49;97496.13;6287800;27;96637;-71
2022/04/02 10:18:37;;;;;;;;;13.00;12.20;;;;;8.38;44.42;97495.09;6283823;27;98374;-72
2022/04/02 10:21:50;;;;;;;;;15.00;14.50;;;;;8.39;44.34;97491.34;6288689;27;97154;-73
2022/04/02 10:25:00;;;;;;;;;11.00;11.00;;;;;8.52;44.09;97498.28;6288627;27;97261;-70
2022/04/02 10:28:12;;;;;;;;;11.60;11.00;;;;;8.54;44.58;97499.69;6291349;27;96634;-69
2022/04/02 10:31:35;;;;;;;;;18.00;16.00;;;;;8.59;44.07;97501.63;6279094;27;98373;-70
2022/04/02 10:34:49;;;;;;;;;18.00;16.00;;;;;8.49;44.23;97498.78;6276327;27;99414;-71
2022/04/02 10:38:10;;;;;;;;;15.00;14.00;;;;;8.53;44.34;97511.47;6264678;27;98380;-69
2022/04/02 10:41:16;;;;;;;;;14.00;14.00;;;;;8.52;44.46;97506.34;6288552;27;96516;-69
2022/04/02 10:44:31;;;;;;;;;17.40;16.40;;;;;8.57;44.54;97509.13;6285058;27;97199;-69
2022/04/02 10:47:42;;;;;;;;;16.60;15.60;;;;;8.57;44.48;97506.41;6288887;27;96755;-70
2022/04/02 10:50:45;;;;;;;;;17.60;15.60;;;;;8.61;44.24;97512.94;6276062;27;98062;-70
2022/04/02 10:54:00;;;;;;;;;14.60;14.00;;;;;8.63;44.16;97518.91;6263990;27;97781;-69
2022/04/02 10:57:04;;;;;;;;;16.60;16.00;;;;;8.65;44.10;97522.13;6266525;27;97048;-69
2022/04/02 11:00:10;;;;;;;;;16.00;14.80;;;;;8.61;44.23;97526.38;6263770;27;97117;-70
2022/04/02 11:03:21;;;;;;;;;17.00;13.80;;;;;8.62;44.30;97525.31;6262766;27;97683;-70
2022/04/02 11:06:51;;;;;;;;;17.00;16.00;;;;;8.60;44.17;97536.28;6281017;27;96612;-70
2022/04/02 11:09:58;;;;;;;;;20.00;18.00;;;;;8.63;44.02;97535.00;6232161;27;97176;-70
2022/04/02 11:13:04;;;;;;;;;18.00;15.50;;;;;8.69;43.93;97537.56;6239965;27;99663;-69
2022/04/02 11:16:14;;;;;;;;;18.25;17.00;;;;;8.62;43.49;97536.06;6263881;27;98517;-68
2022/04/02 11:23:07;;;;;;;;;22.00;18.40;;;;;8.49;43.94;97544.44;6267916;27;97872;-68
2022/04/02 11:26:15;;;;;;;;;19.60;18.00;;;;;8.45;43.84;97549.47;6260851;27;98640;-69
2022/04/02 11:29:25;;;;;;;;;16.80;16.00;;;;;8.47;44.09;97562.66;6245740;27;97153;-69
2022/04/02 11:32:37;;;;;;;;;21.40;18.00;;;;;8.39;44.04;97561.16;6270362;27;97196;-68
2022/04/02 11:35:44;;;;;;;;;18.00;16.00;;;;;8.38;44.18;97554.16;6287190;27;98705;-69
2022/04/02 11:38:52;;;;;;;;;17.20;15.00;;;;;8.38;44.39;97548.78;6259573;27;97734;-70
2022/04/02 11:41:59;;;;;;;;;19.00;17.00;;;;;8.39;44.16;97557.66;6282095;27;96622;-70
2022/04/02 11:45:07;;;;;;;;;17.50;16.00;;;;;8.27;43.99;97528.13;6283827;27;97584;-69
2022/04/02 11:48:12;;;;;;;;;18.00;16.00;;;;;8.49;44.17;97558.69;6287446;27;97385;-68
2022/04/02 11:51:17;;;;;;;;;20.00;18.00;;;;;8.51;43.92;97569.16;6290229;27;96617;-69
2022/04/02 11:54:21;;;;;;;;;20.00;17.60;;;;;8.54;43.65;97558.78;6287886;27;97233;-68
2022/04/02 11:57:26;;;;;;;;;22.00;19.00;;;;;8.45;43.70;97549.47;6266417;27;97167;-69
2022/04/02 12:00:31;;;;;;;;;20.40;18.40;;;;;8.50;43.50;97572.91;6314040;27;97105;-69
2022/04/02 12:03:34;;;;;;;;;19.00;18.00;;;;;8.52;43.56;97568.94;6288623;27;97351;-69
2022/04/02 12:06:38;;;;;;;;;19.00;17.20;;;;;8.56;43.47;97578.13;6283054;27;97576;-69
2022/04/02 12:09:52;;;;;;;;;18.80;17.00;;;;;8.52;43.67;97574.31;6275308;27;97217;-69
2022/04/02 12:12:59;;;;;;;;;17.60;16.60;;;;;8.47;43.58;97571.53;6286453;27;98638;-69
2022/04/02 12:16:05;;;;;;;;;17.00;16.00;;;;;8.52;43.48;97571.63;6289824;27;96495;-69
2022/04/02 12:19:11;;;;;;;;;22.00;18.00;;;;;8.51;43.51;97586.09;6282339;27;97983;-69
2022/04/02 12:22:21;;;;;;;;;16.25;15.25;;;;;8.59;43.37;97587.59;6267590;27;97742;-69
2022/04/02 12:25:25;;;;;;;;;18.00;15.25;;;;;8.62;43.38;97579.03;6287586;27;97388;-69
2022/04/02 12:28:30;;;;;;;;;16.00;15.00;;;;;8.60;42.56;97583.84;6249962;27;99519;-69
2022/04/02 12:31:35;;;;;;;;;18.00;18.00;;;;;8.58;42.83;97594.84;6269464;27;99805;-70
2022/04/02 12:34:39;;;;;;;;;17.20;16.20;;;;;8.59;42.90;97591.09;6267786;27;96889;-69
2022/04/02 12:37:44;;;;;;;;;17.40;16.00;;;;;8.61;42.88;97596.22;6270108;27;100452;-69
2022/04/02 12:40:49;;;;;;;;;14.00;14.00;;;;;8.60;42.89;97594.59;6263588;27;99152;-70
2022/04/02 12:44:00;;;;;;;;;15.80;14.80;;;;;8.56;42.71;97599.63;6270485;27;97176;-70
2022/04/02 12:47:10;;;;;;;;;19.00;18.00;;;;;8.57;42.93;97597.75;6285449;27;96804;-69
2022/04/02 12:50:17;;;;;;;;;18.00;18.00;;;;;8.49;42.87;97590.09;6260946;27;97877;-70
2022/04/02 12:53:29;;;;;;;;;15.00;15.00;;;;;8.50;43.13;97597.09;6280991;27;97868;-70
2022/04/02 12:56:34;;;;;;;;;22.40;20.40;;;;;8.38;43.19;97605.19;6272328;27;97546;-69
2022/04/02 12:59:53;;;;;;;;;19.00;16.25;;;;;8.43;43.40;97610.66;6264848;27;97934;-70
2022/04/02 13:02:59;;;;;;;;;18.25;18.25;;;;;8.35;43.58;97602.16;6281118;27;98707;-70
2022/04/02 13:06:03;;;;;;;;;22.60;20.20;;;;;8.20;43.78;97619.56;6261656;27;97295;-69
2022/04/02 13:09:14;;;;;;;;;26.00;21.00;;;;;7.86;43.52;97566.78;6273369;27;96980;-69
2022/04/02 13:12:21;;;;;;;;;17.00;14.00;;;;;8.24;43.53;97615.34;6269697;27;96790;-70
2022/04/02 13:15:29;;;;;;;;;21.60;21.00;;;;;8.31;43.51;97617.13;6276981;27;97749;-69
2022/04/02 13:22:01;;;;;;;;;20.00;18.60;;;;;8.13;43.58;97628.78;6295429;27;97278;-70
2022/04/02 13:25:10;;;;;;;;;22.00;20.00;;;;;8.05;43.78;97634.53;6290269;27;97219;-69
2022/04/02 13:28:33;;;;;;;;;24.60;22.60;;;;;8.04;43.99;97628.34;6266529;27;97055;-71
2022/04/02 13:31:54;;;;;;;;;19.00;17.00;;;;;7.96;44.14;97644.81;6275053;27;96411;-70
2022/04/02 13:35:05;;;;;;;;;21.40;18.40;;;;;7.88;44.44;97628.25;6277869;27;99507;-72
2022/04/02 13:38:24;;;;;;;;;18.40;16.80;;;;;7.77;44.25;97644.13;6290301;27;98357;-71
2022/04/02 13:41:30;;;;;;;;;18.00;17.00;;;;;7.89;44.32;97646.81;6287539;27;97986;-72
2022/04/02 13:44:43;;;;;;;;;21.60;18.00;;;;;7.86;44.35;97649.16;6270787;27;97929;-71
2022/04/02 13:47:56;;;;;;;;;20.60;19.40;;;;;7.94;44.31;97651.47;6274163;27;98515;-71
2022/04/02 13:51:04;;;;;;;;;19.40;17.40;;;;;7.96;44.27;97650.19;6286407;27;96603;-71
2022/04/02 13:54:09;;;;;;;;;20.60;18.60;;;;;7.82;44.46;97659.50;6270441;27;96640;-72
2022/04/02 13:57:17;;;;;;;;;19.00;18.40;;;;;7.83;44.60;97659.28;6271082;27;97579;-71
2022/04/02 14:00:24;;;;;;;;;22.00;20.00;;;;;7.84;44.80;97668.16;6279233;27;97666;-73
2022/04/02 14:03:31;;;;;;;;;22.60;20.00;;;;;7.81;44.88;97668.63;6263002;27;96972;-71
2022/04/02 14:06:36;;;;;;;;;21.00;18.75;;;;;7.72;44.85;97660.09;6249455;27;97837;-72
2022/04/02 14:09:49;;;;;;;;;20.00;17.00;;;;;7.94;44.45;97673.75;6248819;27;98383;-72
2022/04/02 14:13:00;;;;;;;;;21.40;19.00;;;;;7.96;44.11;97678.88;6260417;27;99755;-71
2022/04/02 14:16:05;;;;;;;;;20.00;17.20;;;;;7.88;44.07;97681.91;6277947;27;98064;-72
2022/04/02 14:19:12;;;;;;;;;21.00;18.00;;;;;7.87;44.24;97677.63;6265141;27;97149;-72
2022/04/02 14:22:21;;;;;;;;;20.40;18.40;;;;;7.90;43.77;97679.81;6264566;27;98500;-71
2022/04/02 14:26:02;;;;;;;;;20.40;19.40;;;;;7.92;43.81;97675.03;6276448;27;97660;-71
2022/04/02 14:29:22;;;;;;;;;18.80;17.80;;;;;7.94;43.97;97679.13;6248026;27;97550;-71
2022/04/02 14:33:02;;;;;;;;;20.40;18.00;;;;;7.94;44.03;97679.13;6283684;27;99724;-71
2022/04/02 14:36:33;;;;;;;;;19.40;18.00;;;;;7.91;43.88;97679.59;6277802;27;96652;-71
2022/04/02 14:40:10;;;;;;;;;19.00;17.00;;;;;7.90;43.88;97680.63;6265974;27;97049;-72
2022/04/02 14:43:48;;;;;;;;;24.00;21.00;;;;;7.90;44.21;97680.63;6282069;27;97429;-72
2022/04/02 14:47:24;;;;;;;;;21.00;19.00;;;;;7.90;44.21;97683.31;6278473;27;97162;-71
2022/04/02 14:51:05;;;;;;;;;25.33;21.00;;;;;7.96;44.10;97687.75;6268453;27;96992;-71
2022/04/02 14:54:42;;;;;;;;;16.75;16.25;;;;;7.99;43.79;97689.97;6253548;27;97719;-71
2022/04/02 14:58:36;;;;;;;;;21.60;21.00;;;;;7.96;43.68;97690.44;6284356;27;97171;-72